sensor_id;sensor_type;location;lat;lon;timestamp;P1;durP1;ratioP1;P2;durP2;ratioP2
11807;SDS011;5961;42.640;23.380;2022-08-19T00:00:34;6.75;;;5.82;;
11807;SDS011;5961;42.640;23.380;2022-08-19T00:03:01;7.85;;;6.10;;
11807;SDS011;5961;42.640;23.380;2022-08-19T00:05:28;6.85;;;6.15;;
11807;SDS011;5961;42.640;23.380;2022-08-19T00:07:55;6.13;;;5.63;;
11807;SDS011;5961;42.640;23.380;2022-08-19T00:10:23;6.68;;;6.07;;
11807;SDS011;5961;42.640;23.380;2022-08-19T00:12:50;7.22;;;6.60;;
11807;SDS011;5961;42.640;23.380;2022-08-19T00:15:19;7.78;;;6.10;;
11807;SDS011;5961;42.640;23.380;2022-08-19T00:17:47;7.82;;;5.80;;
11807;SDS011;5961;42.640;23.380;2022-08-19T00:20:16;7.90;;;6.32;;
11807;SDS011;5961;42.640;23.380;2022-08-19T00:22:45;7.65;;;6.53;;
11807;SDS011;5961;42.640;23.380;2022-08-19T00:25:12;6.32;;;5.72;;
11807;SDS011;5961;42.640;23.380;2022-08-19T00:27:40;6.68;;;6.07;;
11807;SDS011;5961;42.640;23.380;2022-08-19T00:30:07;7.47;;;5.88;;
11807;SDS011;5961;42.640;23.380;2022-08-19T00:32:35;7.13;;;5.85;;
11807;SDS011;5961;42.640;23.380;2022-08-19T00:35:02;6.78;;;5.80;;
11807;SDS011;5961;42.640;23.380;2022-08-19T00:37:30;6.30;;;5.80;;
11807;SDS011;5961;42.640;23.380;2022-08-19T00:39:58;7.45;;;5.75;;
11807;SDS011;5961;42.640;23.380;2022-08-19T00:42:24;6.63;;;6.03;;
11807;SDS011;5961;42.640;23.380;2022-08-19T00:44:54;6.38;;;5.88;;
11807;SDS011;5961;42.640;23.380;2022-08-19T00:47:21;7.10;;;6.47;;
11807;SDS011;5961;42.640;23.380;2022-08-19T00:49:48;6.68;;;6.00;;
11807;SDS011;5961;42.640;23.380;2022-08-19T00:52:18;6.90;;;6.07;;
11807;SDS011;5961;42.640;23.380;2022-08-19T00:54:48;6.63;;;6.05;;
11807;SDS011;5961;42.640;23.380;2022-08-19T00:57:18;6.55;;;5.95;;
11807;SDS011;5961;42.640;23.380;2022-08-19T00:59:52;6.55;;;5.95;;
11807;SDS011;5961;42.640;23.380;2022-08-19T01:02:21;8.10;;;5.90;;
11807;SDS011;5961;42.640;23.380;2022-08-19T01:04:48;6.35;;;5.75;;
11807;SDS011;5961;42.640;23.380;2022-08-19T01:07:15;7.80;;;6.07;;
11807;SDS011;5961;42.640;23.380;2022-08-19T01:09:42;6.75;;;6.15;;
11807;SDS011;5961;42.640;23.380;2022-08-19T01:12:09;6.63;;;5.88;;
11807;SDS011;5961;42.640;23.380;2022-08-19T01:14:37;7.00;;;6.28;;
11807;SDS011;5961;42.640;23.380;2022-08-19T01:17:06;6.25;;;5.70;;
11807;SDS011;5961;42.640;23.380;2022-08-19T01:19:37;7.20;;;6.60;;
11807;SDS011;5961;42.640;23.380;2022-08-19T01:22:08;6.55;;;5.95;;
11807;SDS011;5961;42.640;23.380;2022-08-19T01:24:42;7.03;;;6.43;;
11807;SDS011;5961;42.640;23.380;2022-08-19T01:27:09;6.72;;;6.00;;
11807;SDS011;5961;42.640;23.380;2022-08-19T01:29:37;6.68;;;6.07;;
11807;SDS011;5961;42.640;23.380;2022-08-19T01:32:05;6.97;;;6.38;;
11807;SDS011;5961;42.640;23.380;2022-08-19T01:34:32;6.80;;;6.22;;
11807;SDS011;5961;42.640;23.380;2022-08-19T01:36:59;9.68;;;6.30;;
11807;SDS011;5961;42.640;23.380;2022-08-19T01:39:26;8.00;;;6.65;;
11807;SDS011;5961;42.640;23.380;2022-08-19T01:41:55;7.78;;;6.43;;
11807;SDS011;5961;42.640;23.380;2022-08-19T01:44:21;7.13;;;6.43;;
11807;SDS011;5961;42.640;23.380;2022-08-19T01:46:50;7.38;;;6.68;;
11807;SDS011;5961;42.640;23.380;2022-08-19T01:49:19;6.85;;;6.20;;
11807;SDS011;5961;42.640;23.380;2022-08-19T01:51:50;7.47;;;6.72;;
11807;SDS011;5961;42.640;23.380;2022-08-19T01:54:19;7.30;;;6.50;;
11807;SDS011;5961;42.640;23.380;2022-08-19T01:56:46;7.90;;;7.10;;
11807;SDS011;5961;42.640;23.380;2022-08-19T01:59:16;7.20;;;6.13;;
11807;SDS011;5961;42.640;23.380;2022-08-19T02:01:45;6.65;;;6.05;;
11807;SDS011;5961;42.640;23.380;2022-08-19T02:04:12;7.18;;;6.15;;
11807;SDS011;5961;42.640;23.380;2022-08-19T02:06:39;7.38;;;6.43;;
11807;SDS011;5961;42.640;23.380;2022-08-19T02:09:06;7.88;;;6.25;;
11807;SDS011;5961;42.640;23.380;2022-08-19T02:11:35;6.03;;;5.53;;
11807;SDS011;5961;42.640;23.380;2022-08-19T02:14:04;7.50;;;6.30;;
11807;SDS011;5961;42.640;23.380;2022-08-19T02:16:34;8.55;;;5.93;;
11807;SDS011;5961;42.640;23.380;2022-08-19T02:19:01;7.05;;;6.35;;
11807;SDS011;5961;42.640;23.380;2022-08-19T02:21:29;8.63;;;6.55;;
11807;SDS011;5961;42.640;23.380;2022-08-19T02:23:56;7.70;;;6.20;;
11807;SDS011;5961;42.640;23.380;2022-08-19T02:26:23;7.15;;;6.53;;
11807;SDS011;5961;42.640;23.380;2022-08-19T02:28:51;7.22;;;6.53;;
11807;SDS011;5961;42.640;23.380;2022-08-19T02:31:20;8.52;;;6.00;;
11807;SDS011;5961;42.640;23.380;2022-08-19T02:33:49;7.28;;;6.40;;
11807;SDS011;5961;42.640;23.380;2022-08-19T02:36:17;10.30;;;6.93;;
11807;SDS011;5961;42.640;23.380;2022-08-19T02:38:45;8.48;;;7.13;;
11807;SDS011;5961;42.640;23.380;2022-08-19T02:41:12;7.78;;;6.80;;
11807;SDS011;5961;42.640;23.380;2022-08-19T02:43:42;7.55;;;6.80;;
11807;SDS011;5961;42.640;23.380;2022-08-19T02:46:13;7.97;;;6.40;;
11807;SDS011;5961;42.640;23.380;2022-08-19T02:48:42;6.78;;;6.05;;
11807;SDS011;5961;42.640;23.380;2022-08-19T02:51:14;7.10;;;6.40;;
11807;SDS011;5961;42.640;23.380;2022-08-19T02:53:42;7.28;;;6.50;;
11807;SDS011;5961;42.640;23.380;2022-08-19T02:56:09;8.10;;;6.32;;
11807;SDS011;5961;42.640;23.380;2022-08-19T02:58:36;7.40;;;6.30;;
11807;SDS011;5961;42.640;23.380;2022-08-19T03:01:03;7.00;;;6.05;;
11807;SDS011;5961;42.640;23.380;2022-08-19T03:03:29;7.30;;;6.60;;
11807;SDS011;5961;42.640;23.380;2022-08-19T03:06:03;7.13;;;6.43;;
11807;SDS011;5961;42.640;23.380;2022-08-19T03:08:36;7.00;;;6.40;;
11807;SDS011;5961;42.640;23.380;2022-08-19T03:11:03;7.10;;;6.50;;
11807;SDS011;5961;42.640;23.380;2022-08-19T03:13:30;7.28;;;6.65;;
11807;SDS011;5961;42.640;23.380;2022-08-19T03:15:57;9.75;;;6.75;;
11807;SDS011;5961;42.640;23.380;2022-08-19T03:18:24;7.78;;;7.07;;
11807;SDS011;5961;42.640;23.380;2022-08-19T03:20:51;7.47;;;6.78;;
11807;SDS011;5961;42.640;23.380;2022-08-19T03:23:20;7.82;;;6.57;;
11807;SDS011;5961;42.640;23.380;2022-08-19T03:25:49;7.25;;;6.28;;
11807;SDS011;5961;42.640;23.380;2022-08-19T03:28:19;7.07;;;6.35;;
11807;SDS011;5961;42.640;23.380;2022-08-19T03:30:54;7.38;;;6.68;;
11807;SDS011;5961;42.640;23.380;2022-08-19T03:33:23;7.35;;;6.65;;
11807;SDS011;5961;42.640;23.380;2022-08-19T03:36:00;6.97;;;6.38;;
11807;SDS011;5961;42.640;23.380;2022-08-19T03:38:28;7.32;;;6.68;;
11807;SDS011;5961;42.640;23.380;2022-08-19T03:40:56;8.60;;;6.53;;
11807;SDS011;5961;42.640;23.380;2022-08-19T03:43:23;8.27;;;6.68;;
11807;SDS011;5961;42.640;23.380;2022-08-19T03:45:59;9.43;;;7.22;;
11807;SDS011;5961;42.640;23.380;2022-08-19T03:48:27;7.32;;;6.60;;
11807;SDS011;5961;42.640;23.380;2022-08-19T03:50:56;8.95;;;6.55;;
11807;SDS011;5961;42.640;23.380;2022-08-19T03:53:24;10.27;;;7.00;;
11807;SDS011;5961;42.640;23.380;2022-08-19T03:55:52;8.27;;;7.10;;
11807;SDS011;5961;42.640;23.380;2022-08-19T03:58:20;7.30;;;6.60;;
11807;SDS011;5961;42.640;23.380;2022-08-19T04:00:47;8.27;;;6.88;;
11807;SDS011;5961;42.640;23.380;2022-08-19T04:03:14;7.55;;;6.43;;
11807;SDS011;5961;42.640;23.380;2022-08-19T04:05:41;7.18;;;6.57;;
11807;SDS011;5961;42.640;23.380;2022-08-19T04:08:08;8.50;;;6.72;;
11807;SDS011;5961;42.640;23.380;2022-08-19T04:10:35;8.13;;;6.60;;
11807;SDS011;5961;42.640;23.380;2022-08-19T04:13:02;8.45;;;6.57;;
11807;SDS011;5961;42.640;23.380;2022-08-19T04:15:31;7.43;;;6.57;;
11807;SDS011;5961;42.640;23.380;2022-08-19T04:18:04;7.35;;;6.65;;
11807;SDS011;5961;42.640;23.380;2022-08-19T04:20:32;7.05;;;6.45;;
11807;SDS011;5961;42.640;23.380;2022-08-19T04:22:59;10.93;;;6.80;;
11807;SDS011;5961;42.640;23.380;2022-08-19T04:25:26;7.68;;;6.72;;
11807;SDS011;5961;42.640;23.380;2022-08-19T04:27:52;6.88;;;6.28;;
11807;SDS011;5961;42.640;23.380;2022-08-19T04:30:19;7.35;;;6.65;;
11807;SDS011;5961;42.640;23.380;2022-08-19T04:32:48;7.60;;;6.90;;
11807;SDS011;5961;42.640;23.380;2022-08-19T04:35:15;8.02;;;6.93;;
11807;SDS011;5961;42.640;23.380;2022-08-19T04:37:42;11.40;;;7.80;;
11807;SDS011;5961;42.640;23.380;2022-08-19T04:40:09;9.30;;;7.20;;
11807;SDS011;5961;42.640;23.380;2022-08-19T04:42:53;8.40;;;7.00;;
11807;SDS011;5961;42.640;23.380;2022-08-19T04:45:21;10.40;;;9.13;;
11807;SDS011;5961;42.640;23.380;2022-08-19T04:47:54;12.80;;;8.70;;
11807;SDS011;5961;42.640;23.380;2022-08-19T04:50:22;11.10;;;7.70;;
11807;SDS011;5961;42.640;23.380;2022-08-19T04:52:49;10.32;;;7.35;;
11807;SDS011;5961;42.640;23.380;2022-08-19T04:55:18;12.82;;;7.85;;
11807;SDS011;5961;42.640;23.380;2022-08-19T04:57:45;9.40;;;7.90;;
11807;SDS011;5961;42.640;23.380;2022-08-19T05:00:12;7.72;;;7.03;;
11807;SDS011;5961;42.640;23.380;2022-08-19T05:02:39;7.95;;;7.15;;
11807;SDS011;5961;42.640;23.380;2022-08-19T05:05:07;9.73;;;7.68;;
11807;SDS011;5961;42.640;23.380;2022-08-19T05:07:34;8.75;;;7.30;;
11807;SDS011;5961;42.640;23.380;2022-08-19T05:10:02;9.60;;;7.47;;
11807;SDS011;5961;42.640;23.380;2022-08-19T05:12:30;9.10;;;7.45;;
11807;SDS011;5961;42.640;23.380;2022-08-19T05:14:57;9.05;;;7.55;;
11807;SDS011;5961;42.640;23.380;2022-08-19T05:17:26;10.38;;;7.30;;
11807;SDS011;5961;42.640;23.380;2022-08-19T05:19:53;8.20;;;7.40;;
11807;SDS011;5961;42.640;23.380;2022-08-19T05:22:39;8.93;;;8.02;;
11807;SDS011;5961;42.640;23.380;2022-08-19T05:25:07;12.23;;;7.60;;
11807;SDS011;5961;42.640;23.380;2022-08-19T05:27:37;12.05;;;8.27;;
11807;SDS011;5961;42.640;23.380;2022-08-19T05:30:04;12.38;;;8.60;;
11807;SDS011;5961;42.640;23.380;2022-08-19T05:32:31;13.27;;;8.27;;
11807;SDS011;5961;42.640;23.380;2022-08-19T05:34:58;10.80;;;7.65;;
11807;SDS011;5961;42.640;23.380;2022-08-19T05:37:25;12.27;;;7.60;;
11807;SDS011;5961;42.640;23.380;2022-08-19T05:39:54;8.73;;;7.68;;
11807;SDS011;5961;42.640;23.380;2022-08-19T05:42:21;9.63;;;7.32;;
11807;SDS011;5961;42.640;23.380;2022-08-19T05:44:49;12.50;;;8.20;;
11807;SDS011;5961;42.640;23.380;2022-08-19T05:47:16;10.70;;;7.85;;
11807;SDS011;5961;42.640;23.380;2022-08-19T05:49:44;10.23;;;8.00;;
11807;SDS011;5961;42.640;23.380;2022-08-19T05:52:12;10.35;;;8.38;;
11807;SDS011;5961;42.640;23.380;2022-08-19T05:54:42;15.45;;;8.32;;
11807;SDS011;5961;42.640;23.380;2022-08-19T05:57:14;9.93;;;8.50;;
11807;SDS011;5961;42.640;23.380;2022-08-19T05:59:41;14.23;;;8.18;;
11807;SDS011;5961;42.640;23.380;2022-08-19T06:02:08;12.27;;;8.60;;
11807;SDS011;5961;42.640;23.380;2022-08-19T06:04:35;23.15;;;9.23;;
11807;SDS011;5961;42.640;23.380;2022-08-19T06:07:02;14.93;;;9.68;;
11807;SDS011;5961;42.640;23.380;2022-08-19T06:09:29;11.90;;;8.70;;
11807;SDS011;5961;42.640;23.380;2022-08-19T06:11:57;19.90;;;11.60;;
11807;SDS011;5961;42.640;23.380;2022-08-19T06:14:30;9.20;;;8.30;;
11807;SDS011;5961;42.640;23.380;2022-08-19T06:16:59;12.77;;;7.78;;
11807;SDS011;5961;42.640;23.380;2022-08-19T06:19:27;8.82;;;7.65;;
11807;SDS011;5961;42.640;23.380;2022-08-19T06:21:55;7.65;;;6.80;;
11807;SDS011;5961;42.640;23.380;2022-08-19T06:24:23;10.13;;;7.32;;
11807;SDS011;5961;42.640;23.380;2022-08-19T06:26:52;7.68;;;6.97;;
11807;SDS011;5961;42.640;23.380;2022-08-19T06:29:22;10.25;;;7.30;;
11807;SDS011;5961;42.640;23.380;2022-08-19T06:31:52;10.07;;;7.03;;
11807;SDS011;5961;42.640;23.380;2022-08-19T06:34:22;10.98;;;7.45;;
11807;SDS011;5961;42.640;23.380;2022-08-19T06:36:49;7.85;;;7.05;;
11807;SDS011;5961;42.640;23.380;2022-08-19T06:39:19;9.20;;;7.28;;
11807;SDS011;5961;42.640;23.380;2022-08-19T06:41:51;8.20;;;7.38;;
11807;SDS011;5961;42.640;23.380;2022-08-19T06:44:20;12.40;;;7.43;;
11807;SDS011;5961;42.640;23.380;2022-08-19T06:46:48;11.68;;;6.72;;
11807;SDS011;5961;42.640;23.380;2022-08-19T06:49:17;10.80;;;7.63;;
11807;SDS011;5961;42.640;23.380;2022-08-19T06:51:44;10.75;;;7.30;;
11807;SDS011;5961;42.640;23.380;2022-08-19T06:54:13;8.48;;;7.15;;
11807;SDS011;5961;42.640;23.380;2022-08-19T06:56:40;9.75;;;7.72;;
11807;SDS011;5961;42.640;23.380;2022-08-19T06:59:09;12.00;;;7.75;;
11807;SDS011;5961;42.640;23.380;2022-08-19T07:01:41;12.05;;;7.13;;
11807;SDS011;5961;42.640;23.380;2022-08-19T07:04:11;7.93;;;7.20;;
11807;SDS011;5961;42.640;23.380;2022-08-19T07:06:39;12.35;;;7.40;;
11807;SDS011;5961;42.640;23.380;2022-08-19T07:09:07;7.80;;;7.05;;
11807;SDS011;5961;42.640;23.380;2022-08-19T07:11:35;12.88;;;7.05;;
11807;SDS011;5961;42.640;23.380;2022-08-19T07:14:02;11.15;;;7.47;;
11807;SDS011;5961;42.640;23.380;2022-08-19T07:16:29;14.45;;;8.02;;
11807;SDS011;5961;42.640;23.380;2022-08-19T07:18:56;9.80;;;7.53;;
11807;SDS011;5961;42.640;23.380;2022-08-19T07:21:23;10.73;;;7.60;;
11807;SDS011;5961;42.640;23.380;2022-08-19T07:23:54;11.43;;;7.40;;
11807;SDS011;5961;42.640;23.380;2022-08-19T07:26:22;9.13;;;7.97;;
11807;SDS011;5961;42.640;23.380;2022-08-19T07:28:50;7.90;;;6.70;;
11807;SDS011;5961;42.640;23.380;2022-08-19T07:31:19;9.35;;;7.25;;
11807;SDS011;5961;42.640;23.380;2022-08-19T07:33:47;9.95;;;7.28;;
11807;SDS011;5961;42.640;23.380;2022-08-19T07:36:17;11.57;;;7.30;;
11807;SDS011;5961;42.640;23.380;2022-08-19T07:38:46;10.88;;;7.38;;
11807;SDS011;5961;42.640;23.380;2022-08-19T07:41:18;8.10;;;7.30;;
11807;SDS011;5961;42.640;23.380;2022-08-19T07:43:47;18.33;;;7.10;;
11807;SDS011;5961;42.640;23.380;2022-08-19T07:46:15;9.60;;;7.07;;
11807;SDS011;5961;42.640;23.380;2022-08-19T07:48:45;14.98;;;8.07;;
11807;SDS011;5961;42.640;23.380;2022-08-19T07:51:13;10.90;;;8.02;;
11807;SDS011;5961;42.640;23.380;2022-08-19T07:53:42;9.93;;;7.28;;
11807;SDS011;5961;42.640;23.380;2022-08-19T07:56:10;9.38;;;7.55;;
11807;SDS011;5961;42.640;23.380;2022-08-19T07:58:40;13.50;;;7.68;;
11807;SDS011;5961;42.640;23.380;2022-08-19T08:01:09;14.13;;;7.20;;
11807;SDS011;5961;42.640;23.380;2022-08-19T08:03:37;13.20;;;7.95;;
11807;SDS011;5961;42.640;23.380;2022-08-19T08:06:22;9.25;;;6.70;;
11807;SDS011;5961;42.640;23.380;2022-08-19T08:09:07;12.07;;;7.55;;
11807;SDS011;5961;42.640;23.380;2022-08-19T08:11:41;11.85;;;7.28;;
11807;SDS011;5961;42.640;23.380;2022-08-19T08:14:16;9.45;;;6.95;;
11807;SDS011;5961;42.640;23.380;2022-08-19T08:16:45;9.18;;;7.25;;
11807;SDS011;5961;42.640;23.380;2022-08-19T08:19:12;11.65;;;7.15;;
11807;SDS011;5961;42.640;23.380;2022-08-19T08:21:40;11.43;;;7.32;;
11807;SDS011;5961;42.640;23.380;2022-08-19T08:24:07;13.63;;;7.85;;
11807;SDS011;5961;42.640;23.380;2022-08-19T08:26:34;9.40;;;6.93;;
11807;SDS011;5961;42.640;23.380;2022-08-19T08:29:01;9.63;;;7.45;;
11807;SDS011;5961;42.640;23.380;2022-08-19T08:31:29;10.77;;;6.88;;
11807;SDS011;5961;42.640;23.380;2022-08-19T08:33:56;9.27;;;7.72;;
11807;SDS011;5961;42.640;23.380;2022-08-19T08:36:23;14.25;;;6.82;;
11807;SDS011;5961;42.640;23.380;2022-08-19T08:38:50;14.05;;;7.38;;
11807;SDS011;5961;42.640;23.380;2022-08-19T08:41:21;10.52;;;6.93;;
11807;SDS011;5961;42.640;23.380;2022-08-19T08:43:54;11.52;;;6.60;;
11807;SDS011;5961;42.640;23.380;2022-08-19T08:46:24;13.43;;;7.43;;
11807;SDS011;5961;42.640;23.380;2022-08-19T08:48:58;9.65;;;7.13;;
11807;SDS011;5961;42.640;23.380;2022-08-19T08:51:31;7.70;;;6.35;;
11807;SDS011;5961;42.640;23.380;2022-08-19T08:54:02;11.65;;;6.35;;
11807;SDS011;5961;42.640;23.380;2022-08-19T08:56:31;9.95;;;6.75;;
11807;SDS011;5961;42.640;23.380;2022-08-19T08:59:00;9.77;;;6.63;;
11807;SDS011;5961;42.640;23.380;2022-08-19T09:01:32;10.95;;;6.68;;
11807;SDS011;5961;42.640;23.380;2022-08-19T09:04:00;6.82;;;6.03;;
11807;SDS011;5961;42.640;23.380;2022-08-19T09:06:32;9.45;;;5.93;;
11807;SDS011;5961;42.640;23.380;2022-08-19T09:09:05;7.75;;;6.07;;
11807;SDS011;5961;42.640;23.380;2022-08-19T09:11:44;8.32;;;6.30;;
11807;SDS011;5961;42.640;23.380;2022-08-19T09:14:27;7.40;;;5.95;;
11807;SDS011;5961;42.640;23.380;2022-08-19T09:17:00;7.50;;;5.38;;
11807;SDS011;5961;42.640;23.380;2022-08-19T09:19:29;6.30;;;5.40;;
11807;SDS011;5961;42.640;23.380;2022-08-19T09:21:56;7.47;;;5.22;;
11807;SDS011;5961;42.640;23.380;2022-08-19T09:24:25;6.50;;;5.82;;
11807;SDS011;5961;42.640;23.380;2022-08-19T09:26:52;7.75;;;5.20;;
11807;SDS011;5961;42.640;23.380;2022-08-19T09:29:18;6.32;;;5.13;;
11807;SDS011;5961;42.640;23.380;2022-08-19T09:31:46;7.22;;;4.80;;
11807;SDS011;5961;42.640;23.380;2022-08-19T09:34:12;8.30;;;5.00;;
11807;SDS011;5961;42.640;23.380;2022-08-19T09:36:41;5.72;;;5.10;;
11807;SDS011;5961;42.640;23.380;2022-08-19T09:39:08;5.45;;;4.95;;
11807;SDS011;5961;42.640;23.380;2022-08-19T09:41:34;7.20;;;5.25;;
11807;SDS011;5961;42.640;23.380;2022-08-19T09:44:01;8.52;;;5.15;;
11807;SDS011;5961;42.640;23.380;2022-08-19T09:46:29;8.73;;;5.50;;
11807;SDS011;5961;42.640;23.380;2022-08-19T09:48:57;5.60;;;5.05;;
11807;SDS011;5961;42.640;23.380;2022-08-19T09:51:25;5.40;;;4.93;;
11807;SDS011;5961;42.640;23.380;2022-08-19T09:53:55;6.45;;;4.40;;
11807;SDS011;5961;42.640;23.380;2022-08-19T09:56:26;6.93;;;5.40;;
11807;SDS011;5961;42.640;23.380;2022-08-19T09:58:53;7.53;;;5.28;;
11807;SDS011;5961;42.640;23.380;2022-08-19T10:01:21;6.03;;;5.28;;
11807;SDS011;5961;42.640;23.380;2022-08-19T10:03:49;5.90;;;5.22;;
11807;SDS011;5961;42.640;23.380;2022-08-19T10:06:20;5.78;;;5.00;;
11807;SDS011;5961;42.640;23.380;2022-08-19T10:08:47;7.40;;;5.40;;
11807;SDS011;5961;42.640;23.380;2022-08-19T10:11:17;6.82;;;5.55;;
11807;SDS011;5961;42.640;23.380;2022-08-19T10:13:45;5.85;;;5.28;;
11807;SDS011;5961;42.640;23.380;2022-08-19T10:16:14;5.75;;;5.22;;
11807;SDS011;5961;42.640;23.380;2022-08-19T10:18:43;6.53;;;5.35;;
11807;SDS011;5961;42.640;23.380;2022-08-19T10:21:10;6.70;;;5.10;;
11807;SDS011;5961;42.640;23.380;2022-08-19T10:23:39;8.27;;;5.63;;
11807;SDS011;5961;42.640;23.380;2022-08-19T10:26:08;6.40;;;4.90;;
11807;SDS011;5961;42.640;23.380;2022-08-19T10:28:37;6.35;;;5.63;;
11807;SDS011;5961;42.640;23.380;2022-08-19T10:31:04;6.97;;;5.32;;
11807;SDS011;5961;42.640;23.380;2022-08-19T10:33:33;6.13;;;5.43;;
11807;SDS011;5961;42.640;23.380;2022-08-19T10:36:00;6.85;;;5.55;;
11807;SDS011;5961;42.640;23.380;2022-08-19T10:38:28;7.68;;;5.65;;
11807;SDS011;5961;42.640;23.380;2022-08-19T10:40:55;6.68;;;5.60;;
11807;SDS011;5961;42.640;23.380;2022-08-19T10:43:22;6.90;;;5.07;;
11807;SDS011;5961;42.640;23.380;2022-08-19T10:45:53;6.45;;;5.25;;
11807;SDS011;5961;42.640;23.380;2022-08-19T10:48:22;7.57;;;5.30;;
11807;SDS011;5961;42.640;23.380;2022-08-19T10:50:48;5.80;;;5.28;;
11807;SDS011;5961;42.640;23.380;2022-08-19T10:53:33;6.03;;;5.05;;
11807;SDS011;5961;42.640;23.380;2022-08-19T10:55:59;5.60;;;5.10;;
11807;SDS011;5961;42.640;23.380;2022-08-19T10:58:44;7.10;;;5.53;;
11807;SDS011;5961;42.640;23.380;2022-08-19T11:01:12;6.68;;;5.63;;
11807;SDS011;5961;42.640;23.380;2022-08-19T11:03:38;7.57;;;5.38;;
11807;SDS011;5961;42.640;23.380;2022-08-19T11:06:06;6.82;;;5.30;;
11807;SDS011;5961;42.640;23.380;2022-08-19T11:08:34;10.15;;;5.72;;
11807;SDS011;5961;42.640;23.380;2022-08-19T11:11:02;6.03;;;5.47;;
11807;SDS011;5961;42.640;23.380;2022-08-19T11:13:33;7.07;;;6.05;;
11807;SDS011;5961;42.640;23.380;2022-08-19T11:16:03;5.60;;;5.10;;
11807;SDS011;5961;42.640;23.380;2022-08-19T11:18:34;9.50;;;5.30;;
11807;SDS011;5961;42.640;23.380;2022-08-19T11:21:06;6.63;;;5.25;;
11807;SDS011;5961;42.640;23.380;2022-08-19T11:23:34;6.30;;;5.70;;
11807;SDS011;5961;42.640;23.380;2022-08-19T11:26:01;6.20;;;5.60;;
11807;SDS011;5961;42.640;23.380;2022-08-19T11:28:28;8.07;;;5.75;;
11807;SDS011;5961;42.640;23.380;2022-08-19T11:30:55;8.45;;;5.93;;
11807;SDS011;5961;42.640;23.380;2022-08-19T11:33:21;8.63;;;5.88;;
11807;SDS011;5961;42.640;23.380;2022-08-19T11:35:51;6.65;;;5.78;;
11807;SDS011;5961;42.640;23.380;2022-08-19T11:38:19;9.18;;;5.65;;
11807;SDS011;5961;42.640;23.380;2022-08-19T11:40:53;5.82;;;5.38;;
11807;SDS011;5961;42.640;23.380;2022-08-19T11:43:20;6.00;;;5.40;;
11807;SDS011;5961;42.640;23.380;2022-08-19T11:45:47;6.03;;;5.40;;
11807;SDS011;5961;42.640;23.380;2022-08-19T11:48:14;6.15;;;5.60;;
11807;SDS011;5961;42.640;23.380;2022-08-19T11:50:41;11.55;;;5.93;;
11807;SDS011;5961;42.640;23.380;2022-08-19T11:53:09;7.35;;;6.15;;
11807;SDS011;5961;42.640;23.380;2022-08-19T11:55:36;8.15;;;5.88;;
11807;SDS011;5961;42.640;23.380;2022-08-19T11:58:04;8.13;;;5.55;;
11807;SDS011;5961;42.640;23.380;2022-08-19T12:00:33;6.00;;;5.43;;
11807;SDS011;5961;42.640;23.380;2022-08-19T12:03:00;6.13;;;5.53;;
11807;SDS011;5961;42.640;23.380;2022-08-19T12:05:27;6.93;;;6.15;;
11807;SDS011;5961;42.640;23.380;2022-08-19T12:07:54;6.60;;;5.70;;
11807;SDS011;5961;42.640;23.380;2022-08-19T12:10:22;6.38;;;5.78;;
11807;SDS011;5961;42.640;23.380;2022-08-19T12:12:49;8.40;;;5.78;;
11807;SDS011;5961;42.640;23.380;2022-08-19T12:15:16;6.75;;;5.93;;
11807;SDS011;5961;42.640;23.380;2022-08-19T12:17:43;6.78;;;5.85;;
11807;SDS011;5961;42.640;23.380;2022-08-19T12:20:10;7.90;;;6.20;;
11807;SDS011;5961;42.640;23.380;2022-08-19T12:22:38;9.85;;;5.53;;
11807;SDS011;5961;42.640;23.380;2022-08-19T12:25:06;7.47;;;5.75;;
11807;SDS011;5961;42.640;23.380;2022-08-19T12:27:36;6.57;;;5.90;;
11807;SDS011;5961;42.640;23.380;2022-08-19T12:30:03;8.05;;;6.15;;
11807;SDS011;5961;42.640;23.380;2022-08-19T12:32:31;7.18;;;5.85;;
11807;SDS011;5961;42.640;23.380;2022-08-19T12:34:58;7.05;;;6.40;;
11807;SDS011;5961;42.640;23.380;2022-08-19T12:37:24;7.78;;;6.25;;
11807;SDS011;5961;42.640;23.380;2022-08-19T12:39:51;9.45;;;6.20;;
11807;SDS011;5961;42.640;23.380;2022-08-19T12:42:18;6.38;;;5.75;;
11807;SDS011;5961;42.640;23.380;2022-08-19T12:44:48;6.15;;;5.65;;
11807;SDS011;5961;42.640;23.380;2022-08-19T12:47:16;9.02;;;5.97;;
11807;SDS011;5961;42.640;23.380;2022-08-19T12:49:43;8.80;;;6.25;;
11807;SDS011;5961;42.640;23.380;2022-08-19T12:52:11;6.65;;;6.05;;
11807;SDS011;5961;42.640;23.380;2022-08-19T12:54:40;11.93;;;6.90;;
11807;SDS011;5961;42.640;23.380;2022-08-19T12:57:08;6.55;;;5.95;;
11807;SDS011;5961;42.640;23.380;2022-08-19T12:59:36;8.30;;;6.20;;
11807;SDS011;5961;42.640;23.380;2022-08-19T13:02:06;6.72;;;5.88;;
11807;SDS011;5961;42.640;23.380;2022-08-19T13:04:34;6.78;;;6.18;;
11807;SDS011;5961;42.640;23.380;2022-08-19T13:07:05;7.95;;;6.30;;
11807;SDS011;5961;42.640;23.380;2022-08-19T13:09:33;6.30;;;5.70;;
11807;SDS011;5961;42.640;23.380;2022-08-19T13:12:01;7.10;;;5.90;;
11807;SDS011;5961;42.640;23.380;2022-08-19T13:14:32;7.15;;;6.30;;
11807;SDS011;5961;42.640;23.380;2022-08-19T13:16:59;7.00;;;6.32;;
11807;SDS011;5961;42.640;23.380;2022-08-19T13:19:28;9.32;;;6.18;;
11807;SDS011;5961;42.640;23.380;2022-08-19T13:21:56;6.53;;;5.93;;
11807;SDS011;5961;42.640;23.380;2022-08-19T13:24:23;6.65;;;6.13;;
11807;SDS011;5961;42.640;23.380;2022-08-19T13:26:49;6.63;;;6.00;;
11807;SDS011;5961;42.640;23.380;2022-08-19T13:29:16;7.97;;;6.50;;
11807;SDS011;5961;42.640;23.380;2022-08-19T13:32:00;7.90;;;6.30;;
11807;SDS011;5961;42.640;23.380;2022-08-19T13:34:45;8.38;;;6.28;;
11807;SDS011;5961;42.640;23.380;2022-08-19T13:37:12;7.18;;;6.47;;
11807;SDS011;5961;42.640;23.380;2022-08-19T13:39:39;8.88;;;6.35;;
11807;SDS011;5961;42.640;23.380;2022-08-19T13:42:06;9.10;;;6.70;;
11807;SDS011;5961;42.640;23.380;2022-08-19T13:44:35;12.60;;;6.50;;
11807;SDS011;5961;42.640;23.380;2022-08-19T13:47:02;7.45;;;6.18;;
11807;SDS011;5961;42.640;23.380;2022-08-19T13:49:32;7.75;;;6.60;;
11807;SDS011;5961;42.640;23.380;2022-08-19T13:52:02;6.72;;;6.00;;
11807;SDS011;5961;42.640;23.380;2022-08-19T13:54:29;11.10;;;6.28;;
11807;SDS011;5961;42.640;23.380;2022-08-19T13:56:56;8.93;;;6.18;;
11807;SDS011;5961;42.640;23.380;2022-08-19T13:59:22;9.85;;;6.32;;
11807;SDS011;5961;42.640;23.380;2022-08-19T14:01:50;6.93;;;6.03;;
11807;SDS011;5961;42.640;23.380;2022-08-19T14:04:16;7.15;;;6.05;;
11807;SDS011;5961;42.640;23.380;2022-08-19T14:06:43;7.03;;;6.18;;
11807;SDS011;5961;42.640;23.380;2022-08-19T14:09:11;7.38;;;6.28;;
11807;SDS011;5961;42.640;23.380;2022-08-19T14:11:38;9.68;;;6.15;;
11807;SDS011;5961;42.640;23.380;2022-08-19T14:14:04;7.93;;;5.90;;
11807;SDS011;5961;42.640;23.380;2022-08-19T14:16:31;6.80;;;6.10;;
11807;SDS011;5961;42.640;23.380;2022-08-19T14:18:58;8.80;;;6.00;;
11807;SDS011;5961;42.640;23.380;2022-08-19T14:21:25;7.70;;;6.35;;
11807;SDS011;5961;42.640;23.380;2022-08-19T14:23:52;7.63;;;6.32;;
11807;SDS011;5961;42.640;23.380;2022-08-19T14:26:21;7.28;;;5.97;;
11807;SDS011;5961;42.640;23.380;2022-08-19T14:28:48;7.10;;;6.20;;
11807;SDS011;5961;42.640;23.380;2022-08-19T14:31:15;10.50;;;6.00;;
11807;SDS011;5961;42.640;23.380;2022-08-19T14:33:43;11.57;;;6.65;;
11807;SDS011;5961;42.640;23.380;2022-08-19T14:36:11;11.30;;;6.47;;
11807;SDS011;5961;42.640;23.380;2022-08-19T14:38:37;11.27;;;6.10;;
11807;SDS011;5961;42.640;23.380;2022-08-19T14:41:06;10.25;;;6.53;;
11807;SDS011;5961;42.640;23.380;2022-08-19T14:43:35;7.05;;;6.35;;
11807;SDS011;5961;42.640;23.380;2022-08-19T14:46:03;9.00;;;6.35;;
11807;SDS011;5961;42.640;23.380;2022-08-19T14:48:30;9.43;;;6.50;;
11807;SDS011;5961;42.640;23.380;2022-08-19T14:50:56;7.57;;;6.00;;
11807;SDS011;5961;42.640;23.380;2022-08-19T14:53:23;8.82;;;6.40;;